createdAt,value
2023-01-29T00:01:08.269Z,16.60
2023-01-29T00:04:09.694Z,18.92
2023-01-29T00:07:11.320Z,19.60
2023-01-29T00:10:12.765Z,17.58
2023-01-29T00:13:14.334Z,23.08
2023-01-29T00:16:15.775Z,17.75
2023-01-29T00:19:17.194Z,20.02
2023-01-29T00:22:18.916Z,16.67
2023-01-29T00:25:20.326Z,22.83
2023-01-29T00:28:21.762Z,20.00
2023-01-29T00:31:25.185Z,22.38
2023-01-29T00:37:28.083Z,22.98
2023-01-29T00:40:30.029Z,22.40
2023-01-29T00:43:31.732Z,19.17
2023-01-29T00:46:33.692Z,22.20
2023-01-29T00:49:35.171Z,18.15
2023-01-29T00:52:36.788Z,21.00
2023-01-29T00:55:38.234Z,20.35
2023-01-29T00:58:39.692Z,18.35
2023-01-29T01:01:41.134Z,23.33
2023-01-29T01:04:42.610Z,20.85
2023-01-29T01:07:50.075Z,20.67
2023-01-29T01:11:02.644Z,19.02
2023-01-29T01:14:04.116Z,19.23
2023-01-29T01:17:05.542Z,21.73
2023-01-29T01:20:07.498Z,19.88
2023-01-29T01:23:08.940Z,19.77
2023-01-29T01:26:10.509Z,18.95
2023-01-29T01:29:12.358Z,19.10
2023-01-29T01:32:14.469Z,20.85
2023-01-29T01:35:16.104Z,20.75
2023-01-29T01:38:17.626Z,20.55
2023-01-29T01:41:21.186Z,19.45
2023-01-29T01:44:53.665Z,20.40
2023-01-29T01:48:04.024Z,18.58
2023-01-29T01:51:05.818Z,18.85
2023-01-29T01:54:12.660Z,17.10
2023-01-29T01:57:20.406Z,19.35
2023-01-29T02:00:25.269Z,20.55
2023-01-29T02:03:28.484Z,22.27
2023-01-29T02:06:31.773Z,24.08
2023-01-29T02:09:40.374Z,19.20
2023-01-29T02:12:42.868Z,21.42
2023-01-29T02:15:45.646Z,18.92
2023-01-29T02:18:47.340Z,19.20
2023-01-29T02:22:00.848Z,23.75
2023-01-29T02:28:36.363Z,19.23
2023-01-29T02:31:46.156Z,20.88
2023-01-29T02:35:20.433Z,20.67
2023-01-29T02:38:28.540Z,20.15
2023-01-29T02:41:46.380Z,20.38
2023-01-29T02:44:56.531Z,17.83
2023-01-29T02:48:00.263Z,19.45
2023-01-29T02:51:07.542Z,17.98
2023-01-29T02:54:27.875Z,19.42
2023-01-29T02:57:34.653Z,19.33
2023-01-29T03:00:41.817Z,19.27
2023-01-29T03:03:49.363Z,20.50
2023-01-29T03:07:03.102Z,21.58
2023-01-29T03:10:12.809Z,21.52
2023-01-29T03:13:41.875Z,19.25
2023-01-29T03:16:51.730Z,18.48
2023-01-29T03:19:54.248Z,16.60
2023-01-29T03:23:01.775Z,21.83
2023-01-29T03:26:06.070Z,21.73
2023-01-29T03:29:09.687Z,23.10
2023-01-29T03:32:13.235Z,18.05
2023-01-29T03:35:17.361Z,20.67
2023-01-29T03:38:20.195Z,20.33
2023-01-29T03:41:32.618Z,22.25
2023-01-29T03:44:34.181Z,19.05
2023-01-29T03:47:49.633Z,20.73
2023-01-29T03:51:11.933Z,18.60
2023-01-29T03:54:35.021Z,20.13
2023-01-29T03:57:53.314Z,24.33
2023-01-29T04:01:03.089Z,18.17
2023-01-29T04:04:15.012Z,18.65
2023-01-29T04:07:20.271Z,18.70
2023-01-29T04:10:28.303Z,17.95
2023-01-29T04:13:31.823Z,19.77
2023-01-29T04:16:38.315Z,18.92
2023-01-29T04:19:50.451Z,19.15
2023-01-29T04:22:52.196Z,18.55
2023-01-29T04:26:13.351Z,18.70
2023-01-29T04:30:05.618Z,20.13
2023-01-29T04:33:42.746Z,16.98
2023-01-29T04:37:09.746Z,17.23
2023-01-29T04:40:25.674Z,17.83
2023-01-29T04:43:38.540Z,20.67
2023-01-29T04:47:02.834Z,17.50
2023-01-29T04:50:16.755Z,19.88
2023-01-29T04:53:48.322Z,16.40
2023-01-29T04:57:10.717Z,16.88
2023-01-29T05:00:25.979Z,17.55
2023-01-29T05:03:29.718Z,20.35
2023-01-29T05:06:32.233Z,19.55
2023-01-29T05:09:34.425Z,17.10
2023-01-29T05:12:37.701Z,20.17
2023-01-29T05:15:42.563Z,21.23
2023-01-29T05:18:44.282Z,19.55
2023-01-29T05:21:48.603Z,17.70
2023-01-29T05:24:50.525Z,19.00
2023-01-29T05:27:52.894Z,16.58
2023-01-29T05:30:56.448Z,17.50
2023-01-29T05:33:57.983Z,18.42
2023-01-29T05:36:59.385Z,19.13
2023-01-29T05:40:00.855Z,20.13
2023-01-29T05:43:02.303Z,17.35
2023-01-29T05:46:03.836Z,17.42
2023-01-29T05:49:06.029Z,18.92
2023-01-29T05:52:07.515Z,15.00
2023-01-29T05:55:09.532Z,18.63
2023-01-29T05:58:11.394Z,17.20
2023-01-29T06:01:17.431Z,17.25
2023-01-29T06:04:18.865Z,17.33
2023-01-29T06:07:20.303Z,18.17
2023-01-29T06:10:21.964Z,16.52
2023-01-29T06:13:23.749Z,18.42
2023-01-29T06:16:25.328Z,15.52
2023-01-29T06:19:26.793Z,14.35
2023-01-29T06:22:28.255Z,15.73
2023-01-29T06:25:29.674Z,16.45
2023-01-29T06:28:31.475Z,14.07
2023-01-29T06:31:38.884Z,16.13
2023-01-29T06:34:40.661Z,15.95
2023-01-29T06:37:42.128Z,15.77
2023-01-29T06:40:43.538Z,15.60
2023-01-29T06:43:45.939Z,15.48
2023-01-29T06:46:47.350Z,18.40
2023-01-29T06:49:49.198Z,18.10
2023-01-29T06:52:50.634Z,17.75
2023-01-29T06:55:53.011Z,18.58
2023-01-29T06:58:54.551Z,17.30
2023-01-29T07:01:56.158Z,17.70
2023-01-29T07:04:57.671Z,19.52
2023-01-29T07:07:59.346Z,17.63
2023-01-29T07:11:01.679Z,20.65
2023-01-29T07:14:03.603Z,21.00
2023-01-29T07:17:05.117Z,20.10
2023-01-29T07:20:07.295Z,22.08
2023-01-29T07:23:17.831Z,22.17
2023-01-29T07:26:19.388Z,22.48
2023-01-29T07:29:20.812Z,24.48
2023-01-29T07:32:22.701Z,24.45
2023-01-29T07:35:24.113Z,26.95
2023-01-29T07:38:25.805Z,25.70
2023-01-29T07:41:27.292Z,25.00
2023-01-29T07:44:29.445Z,26.40
2023-01-29T07:47:30.873Z,27.90
2023-01-29T07:50:34.961Z,29.17
2023-01-29T07:53:36.365Z,25.95
2023-01-29T07:56:37.789Z,34.28
2023-01-29T07:59:39.214Z,28.88
2023-01-29T08:02:41.726Z,32.63
2023-01-29T08:05:44.460Z,29.77
2023-01-29T08:08:45.941Z,30.77
2023-01-29T08:11:47.382Z,32.88
2023-01-29T08:14:48.898Z,33.20
2023-01-29T08:17:57.730Z,32.33
2023-01-29T08:21:04.102Z,31.35
2023-01-29T08:24:14.531Z,29.90
2023-01-29T08:27:15.980Z,32.17
2023-01-29T08:30:18.563Z,35.58
2023-01-29T08:33:29.740Z,37.80
2023-01-29T08:36:35.136Z,31.63
2023-01-29T08:39:36.585Z,32.40
2023-01-29T08:42:38.078Z,34.22
2023-01-29T08:45:43.782Z,36.08
2023-01-29T08:48:45.249Z,35.45
2023-01-29T08:51:46.711Z,34.25
2023-01-29T08:54:48.120Z,36.33
2023-01-29T08:57:49.574Z,36.75
2023-01-29T09:00:51.048Z,37.53
2023-01-29T09:03:52.565Z,40.63
2023-01-29T09:06:54.035Z,38.30
2023-01-29T09:09:55.519Z,38.00
2023-01-29T09:12:56.975Z,41.78
2023-01-29T09:15:59.972Z,40.30
2023-01-29T09:19:01.424Z,39.15
2023-01-29T09:22:02.896Z,45.22
2023-01-29T09:25:04.818Z,47.10
2023-01-29T09:28:06.378Z,41.50
2023-01-29T09:31:07.932Z,40.08
2023-01-29T09:34:09.437Z,38.00
2023-01-29T09:37:10.905Z,42.83
2023-01-29T09:40:28.890Z,45.08
2023-01-29T09:43:39.580Z,41.03
2023-01-29T09:46:44.647Z,42.25
2023-01-29T09:49:51.261Z,43.05
2023-01-29T09:52:58.717Z,38.92
2023-01-29T09:56:24.869Z,38.33
2023-01-29T09:59:31.611Z,44.97
2023-01-29T10:06:51.090Z,47.80
2023-01-29T10:10:15.683Z,44.67
2023-01-29T10:13:32.051Z,45.67
2023-01-29T10:16:44.084Z,42.45
2023-01-29T10:19:45.483Z,40.90
2023-01-29T10:23:26.265Z,41.13
2023-01-29T10:26:29.030Z,44.97
2023-01-29T10:29:32.411Z,48.45
2023-01-29T10:32:37.106Z,45.95
2023-01-29T10:35:43.010Z,42.10
2023-01-29T10:38:47.680Z,44.35
2023-01-29T10:42:21.557Z,43.42
2023-01-29T10:45:53.334Z,37.38
2023-01-29T10:49:25.428Z,40.58
2023-01-29T10:52:43.240Z,40.80
2023-01-29T10:56:17.376Z,41.65
2023-01-29T10:59:23.600Z,55.38
2023-01-29T11:02:26.271Z,57.67
2023-01-29T11:05:49.633Z,51.67
2023-01-29T11:09:20.071Z,51.75
2023-01-29T11:12:30.892Z,45.30
2023-01-29T11:15:33.246Z,40.38
2023-01-29T11:18:58.699Z,38.80
2023-01-29T11:22:01.572Z,42.72
2023-01-29T11:25:21.447Z,38.90
2023-01-29T11:28:40.205Z,40.28
2023-01-29T11:31:41.870Z,36.85
2023-01-29T11:34:58.401Z,38.83
2023-01-29T11:38:16.656Z,34.95
2023-01-29T11:41:18.129Z,39.08
2023-01-29T11:44:34.348Z,42.20
2023-01-29T11:47:35.912Z,35.22
2023-01-29T11:50:37.456Z,34.55
2023-01-29T11:53:43.526Z,35.53
2023-01-29T11:56:47.191Z,35.47
2023-01-29T11:59:52.091Z,36.25
2023-01-29T12:03:16.147Z,32.22
2023-01-29T12:06:32.763Z,33.92
2023-01-29T12:09:34.286Z,31.73
2023-01-29T12:12:41.598Z,31.17
2023-01-29T12:15:43.052Z,32.60
2023-01-29T12:19:13.141Z,29.25
2023-01-29T12:22:23.737Z,32.50
2023-01-29T12:25:50.289Z,29.98
2023-01-29T12:29:17.733Z,33.30
2023-01-29T12:32:39.197Z,39.47
2023-01-29T12:36:02.174Z,41.63
2023-01-29T12:39:04.386Z,60.57
2023-01-29T12:42:15.260Z,33.17
2023-01-29T12:45:23.572Z,33.35
2023-01-29T12:48:33.869Z,33.15
2023-01-29T12:51:46.616Z,32.17
2023-01-29T12:54:53.231Z,31.70
2023-01-29T12:58:09.205Z,28.40
2023-01-29T13:01:36.294Z,37.55
2023-01-29T13:04:48.274Z,30.20
2023-01-29T13:07:57.721Z,28.15
2023-01-29T13:11:04.490Z,31.00
2023-01-29T13:14:48.749Z,28.75
2023-01-29T13:17:58.805Z,28.92
2023-01-29T13:21:01.097Z,26.13
2023-01-29T13:24:07.256Z,28.88
2023-01-29T13:27:20.977Z,30.80
2023-01-29T13:33:33.363Z,27.38
2023-01-29T13:36:40.892Z,28.80
2023-01-29T13:39:49.572Z,28.70
2023-01-29T13:42:53.286Z,29.23
2023-01-29T13:45:55.025Z,33.03
2023-01-29T13:48:56.673Z,28.42
2023-01-29T13:51:59.586Z,30.60
2023-01-29T13:55:05.059Z,29.02
2023-01-29T13:58:09.781Z,32.90
2023-01-29T14:01:11.271Z,33.00
2023-01-29T14:04:18.730Z,29.25
2023-01-29T14:07:49.395Z,29.80
2023-01-29T14:11:16.718Z,27.38
2023-01-29T14:14:47.631Z,26.85
2023-01-29T14:18:03.217Z,30.35
2023-01-29T14:21:25.408Z,29.58
2023-01-29T14:24:31.026Z,29.50
2023-01-29T14:27:33.464Z,28.90
2023-01-29T14:30:35.296Z,29.15
2023-01-29T14:33:41.057Z,32.78
2023-01-29T14:36:46.194Z,34.45
2023-01-29T14:39:48.827Z,30.52
2023-01-29T14:42:56.916Z,34.70
2023-01-29T14:46:33.211Z,29.38
2023-01-29T14:49:54.523Z,31.98
2023-01-29T14:53:06.798Z,35.55
2023-01-29T14:56:27.215Z,31.95
2023-01-29T14:59:44.539Z,40.97
2023-01-29T15:02:46.680Z,35.65
2023-01-29T15:05:49.326Z,37.95
2023-01-29T15:09:00.407Z,34.15
2023-01-29T15:12:46.255Z,37.03
2023-01-29T15:15:54.024Z,33.78
2023-01-29T15:19:06.783Z,35.42
2023-01-29T15:22:13.384Z,36.40
2023-01-29T15:25:15.845Z,34.78
2023-01-29T15:28:17.520Z,37.77
2023-01-29T15:31:20.262Z,42.30
2023-01-29T15:34:22.526Z,40.50
2023-01-29T15:37:32.458Z,38.92
2023-01-29T15:40:34.754Z,37.05
2023-01-29T15:43:42.760Z,35.65
2023-01-29T15:46:52.873Z,36.70
2023-01-29T15:49:55.349Z,36.38
2023-01-29T15:53:00.225Z,35.65
2023-01-29T15:56:02.493Z,39.90
2023-01-29T15:59:09.682Z,38.80
2023-01-29T16:02:38.762Z,36.63
2023-01-29T16:05:41.117Z,42.42
2023-01-29T16:08:46.371Z,47.53
2023-01-29T16:11:48.515Z,42.17
2023-01-29T16:14:51.175Z,38.80
2023-01-29T16:17:53.149Z,40.20
2023-01-29T16:20:56.337Z,39.55
2023-01-29T16:24:12.850Z,44.92
2023-01-29T16:27:14.552Z,45.13
2023-01-29T16:30:17.189Z,45.20
2023-01-29T16:33:18.658Z,43.27
2023-01-29T16:36:25.586Z,42.10
2023-01-29T16:39:34.142Z,43.20
2023-01-29T16:42:35.592Z,41.45
2023-01-29T16:45:37.094Z,41.58
2023-01-29T16:48:38.570Z,40.15
2023-01-29T16:51:40.023Z,40.92
2023-01-29T16:54:44.534Z,40.08
2023-01-29T16:57:52.440Z,42.65
2023-01-29T17:01:03.259Z,45.67
2023-01-29T17:04:17.044Z,39.05
2023-01-29T17:07:19.311Z,42.60
2023-01-29T17:10:21.756Z,38.25
2023-01-29T17:13:41.698Z,40.75
2023-01-29T17:17:07.577Z,43.85
2023-01-29T17:20:14.699Z,38.65
2023-01-29T17:23:17.022Z,42.13
2023-01-29T17:26:19.850Z,42.10
2023-01-29T17:29:27.017Z,40.53
2023-01-29T17:32:44.031Z,38.90
2023-01-29T17:35:46.715Z,41.92
2023-01-29T17:38:48.156Z,44.20
2023-01-29T17:41:51.620Z,40.17
2023-01-29T17:47:54.533Z,42.35
2023-01-29T17:50:58.902Z,41.83
2023-01-29T17:54:00.414Z,38.78
2023-01-29T17:57:01.866Z,35.35
2023-01-29T18:00:04.614Z,35.47
2023-01-29T18:03:08.097Z,35.35
2023-01-29T18:06:10.550Z,38.63
2023-01-29T18:09:16.806Z,36.45
2023-01-29T18:12:18.287Z,37.38
2023-01-29T18:15:20.106Z,40.75
2023-01-29T18:18:23.765Z,40.95
2023-01-29T18:21:25.253Z,40.40
2023-01-29T18:24:26.890Z,42.78
2023-01-29T18:27:28.393Z,42.25
2023-01-29T18:30:30.057Z,41.42
2023-01-29T18:33:31.616Z,40.83
2023-01-29T18:36:33.126Z,42.90
2023-01-29T18:39:34.608Z,41.42
2023-01-29T18:42:36.082Z,44.22
2023-01-29T18:45:37.629Z,46.20
2023-01-29T18:48:41.614Z,45.53
2023-01-29T18:51:43.804Z,47.08
2023-01-29T18:54:45.237Z,47.88
2023-01-29T18:58:26.740Z,49.53
2023-01-29T19:01:12.287Z,53.15
2023-01-29T19:04:13.873Z,55.70
2023-01-29T19:07:15.423Z,56.47
2023-01-29T19:10:17.097Z,58.03
2023-01-29T19:13:18.568Z,59.08
2023-01-29T19:16:20.474Z,56.92
2023-01-29T19:19:21.950Z,59.63
2023-01-29T19:22:23.425Z,61.15
2023-01-29T19:25:24.962Z,53.22
2023-01-29T19:28:26.436Z,59.10
2023-01-29T19:31:28.332Z,54.38
2023-01-29T19:34:29.819Z,54.70
2023-01-29T19:37:31.358Z,63.75
2023-01-29T19:40:32.844Z,59.53
2023-01-29T19:43:34.339Z,69.22
2023-01-29T19:46:36.256Z,62.40
2023-01-29T19:49:38.040Z,61.90
2023-01-29T19:52:50.589Z,59.83
2023-01-29T19:56:00.109Z,62.38
2023-01-29T19:59:01.656Z,58.83
2023-01-29T20:02:03.204Z,56.38
2023-01-29T20:05:05.098Z,62.10
2023-01-29T20:08:06.603Z,63.88
2023-01-29T20:11:08.465Z,61.75
2023-01-29T20:14:09.924Z,60.65
2023-01-29T20:17:11.909Z,57.92
2023-01-29T20:20:13.384Z,61.40
2023-01-29T20:23:27.989Z,67.57
2023-01-29T20:26:36.941Z,63.05
2023-01-29T20:29:39.186Z,57.55
2023-01-29T20:32:40.637Z,59.85
2023-01-29T20:35:42.081Z,61.92
2023-01-29T20:38:43.497Z,59.95
2023-01-29T20:41:44.980Z,61.90
2023-01-29T20:44:46.400Z,54.05
2023-01-29T20:47:48.726Z,56.40
2023-01-29T20:50:50.203Z,55.80
2023-01-29T20:53:51.735Z,61.90
2023-01-29T20:56:53.327Z,59.15
2023-01-29T20:59:54.919Z,54.83
2023-01-29T21:02:56.343Z,56.67
2023-01-29T21:05:57.830Z,57.85
2023-01-29T21:08:59.248Z,57.03
2023-01-29T21:12:00.909Z,50.97
2023-01-29T21:15:02.417Z,50.13
2023-01-29T21:18:06.142Z,53.60
2023-01-29T21:21:07.650Z,51.33
2023-01-29T21:24:09.388Z,52.45
2023-01-29T21:27:10.845Z,54.53
2023-01-29T21:30:12.519Z,52.83
2023-01-29T21:33:13.966Z,51.40
2023-01-29T21:36:15.463Z,49.65
2023-01-29T21:39:16.943Z,44.97
2023-01-29T21:42:18.405Z,49.08
2023-01-29T21:45:19.986Z,51.05
2023-01-29T21:48:21.585Z,48.17
2023-01-29T21:51:23.059Z,52.92
2023-01-29T21:54:24.484Z,48.75
2023-01-29T21:57:26.031Z,48.40
2023-01-29T22:00:28.036Z,51.35
2023-01-29T22:03:29.463Z,50.10
2023-01-29T22:06:30.919Z,48.38
2023-01-29T22:09:32.374Z,51.20
2023-01-29T22:12:34.082Z,53.10
2023-01-29T22:15:35.496Z,50.50
2023-01-29T22:18:36.964Z,50.88
2023-01-29T22:21:38.508Z,49.65
2023-01-29T22:24:40.586Z,51.28
2023-01-29T22:27:42.003Z,51.28
2023-01-29T22:30:43.693Z,53.45
2023-01-29T22:33:45.213Z,52.10
2023-01-29T22:36:46.671Z,51.63
2023-01-29T22:39:48.105Z,54.65
2023-01-29T22:42:49.562Z,50.92
2023-01-29T22:45:51.095Z,53.38
2023-01-29T22:48:52.584Z,47.67
2023-01-29T22:51:54.049Z,49.20
2023-01-29T22:54:55.540Z,50.85
2023-01-29T22:57:57.110Z,48.95
2023-01-29T23:00:58.565Z,53.20
2023-01-29T23:04:00.031Z,44.03
2023-01-29T23:07:01.516Z,46.83
2023-01-29T23:10:03.673Z,47.85
2023-01-29T23:13:05.156Z,48.75
2023-01-29T23:16:06.693Z,55.28
2023-01-29T23:19:08.239Z,46.17
2023-01-29T23:22:09.722Z,50.15
2023-01-29T23:25:11.242Z,50.03
2023-01-29T23:28:13.105Z,46.42
2023-01-29T23:31:14.911Z,47.47
2023-01-29T23:34:16.378Z,47.28
2023-01-29T23:37:17.789Z,48.47
2023-01-29T23:40:19.590Z,49.80
2023-01-29T23:43:21.082Z,44.47
2023-01-29T23:46:22.797Z,46.90
2023-01-29T23:49:24.229Z,46.63
2023-01-29T23:52:25.678Z,45.67
2023-01-29T23:55:27.152Z,50.65
2023-01-29T23:58:29.464Z,50.35
